Pagina principale
METAR-TAF:

METAR-TAF

Aeroporti :

Fiume, Croazia

latitudine: 45-13N, longitudine: 014-35E, altezza: 85 m

Osservazione

Il bollettino è stato emesso 33 minuti fa, alle 10:00 UTC
Vento 3 kt da ovest, variando fra sud/sud-ovest e nord/nord-ovest
Temperature 19°C
Umidità 40%
Pressione 1019 hPa
Visibilità 10 km o più
Poco nuvoloso ad un'altezza di 5000 ft

METAR: LDRI 211000Z 28003KT 200V330 9999 FEW050 19/05 Q1019

Ora: 12:33 (10:33 UTC)

Previsione

Il bollettino è stato emesso 5 ore e 8 minuti fa, alle 05:25 UTC
Previsione valida dal 21 alle 06 UTC al 22 alle 06 UTC
Vento 6 kt da est/nord-est
Visibilità 10 km o più
nessuna nube inferiore a 1500 m e nessun cumulonembo

TAF: LDRI 210525Z 2106/2206 06006KT CAVOK TX20/2113Z TN08/2204Z

Osservazioni e previsioni meteorologiche di più di 4000 aeroporti (messaggi METAR e TAF).

Le stazioni disponibili sono rappresentate dai dischi gialli e rossi sulla carta.

Puntare il mouse per vedere il nome della stazione.

Clicca sopra per visualizzare le osservazioni e previsioni meteorologiche.

Per cambiare la mappa : fare clic sui pulsanti verdi con una croce nera per ingrandire, il pulsante verde con un trattino per diminuire, o sulla freccia verde per le mappe adiacenti.


METAR-TAF: